createdAt,value
2019-04-29T00:02:22.877Z,68.00
2019-04-29T00:04:52.958Z,68.50
2019-04-29T00:07:23.127Z,69.30
2019-04-29T00:09:53.050Z,69.30
2019-04-29T00:12:23.506Z,69.00
2019-04-29T00:15:07.101Z,70.00
2019-04-29T00:17:52.670Z,70.30
2019-04-29T00:20:30.805Z,70.40
2019-04-29T00:23:01.779Z,70.90
2019-04-29T00:25:32.178Z,71.20
2019-04-29T00:28:02.458Z,71.70
2019-04-29T00:30:32.395Z,72.50
2019-04-29T00:33:02.932Z,72.70
2019-04-29T00:35:33.162Z,73.60
2019-04-29T00:38:21.998Z,73.80
2019-04-29T00:41:11.465Z,74.20
2019-04-29T00:43:51.828Z,74.60
2019-04-29T00:46:22.220Z,75.40
2019-04-29T00:48:52.393Z,76.20
2019-04-29T00:51:23.964Z,76.30
2019-04-29T00:53:57.904Z,75.80
2019-04-29T00:56:28.074Z,76.20
2019-04-29T00:58:57.826Z,76.00
2019-04-29T01:01:27.928Z,76.50
2019-04-29T01:04:03.543Z,76.70
2019-04-29T01:06:39.208Z,77.10
2019-04-29T01:09:16.510Z,77.00
2019-04-29T01:11:52.264Z,77.00
2019-04-29T01:14:30.338Z,77.20
2019-04-29T01:17:07.853Z,77.30
2019-04-29T01:19:42.854Z,77.10
2019-04-29T01:22:19.110Z,77.80
2019-04-29T01:24:54.156Z,77.80
2019-04-29T01:27:34.473Z,77.50
2019-04-29T01:30:09.512Z,77.80
2019-04-29T01:32:50.878Z,77.80
2019-04-29T01:35:26.832Z,77.70
2019-04-29T01:38:03.410Z,78.10
2019-04-29T01:41:03.662Z,77.70
2019-04-29T01:44:09.523Z,78.20
2019-04-29T01:46:46.421Z,77.90
2019-04-29T01:49:20.579Z,78.00
2019-04-29T01:51:58.170Z,78.00
2019-04-29T01:54:33.799Z,78.10
2019-04-29T01:57:12.884Z,78.40
2019-04-29T01:59:52.323Z,78.30
2019-04-29T02:02:25.098Z,78.30
2019-04-29T02:04:57.808Z,78.20
2019-04-29T02:07:31.302Z,78.60
2019-04-29T02:10:13.041Z,78.50
2019-04-29T02:12:45.789Z,78.50
2019-04-29T02:15:18.787Z,78.30
2019-04-29T02:17:50.862Z,78.20
2019-04-29T02:20:23.256Z,78.40
2019-04-29T02:23:12.470Z,78.40
2019-04-29T02:25:46.797Z,78.50
2019-04-29T02:28:19.867Z,78.70
2019-04-29T02:30:52.719Z,78.80
2019-04-29T02:33:25.396Z,78.80
2019-04-29T02:35:59.278Z,79.00
2019-04-29T02:38:40.605Z,78.80
2019-04-29T02:41:30.981Z,79.20
2019-04-29T02:44:05.009Z,79.40
2019-04-29T02:46:37.871Z,79.50
2019-04-29T02:49:10.230Z,79.40
2019-04-29T02:51:50.499Z,79.70
2019-04-29T02:54:24.037Z,79.80
2019-04-29T02:57:06.424Z,79.80
2019-04-29T02:59:43.257Z,79.70
2019-04-29T03:02:34.943Z,79.70
2019-04-29T03:05:19.253Z,79.50
2019-04-29T03:07:52.163Z,79.60
2019-04-29T03:10:25.330Z,79.90
2019-04-29T03:12:58.336Z,79.70
2019-04-29T03:15:35.677Z,80.00
2019-04-29T03:18:06.030Z,80.00
2019-04-29T03:21:10.701Z,79.90
2019-04-29T03:23:40.888Z,79.90
2019-04-29T03:26:11.119Z,80.20
2019-04-29T03:28:41.239Z,80.40
2019-04-29T03:31:11.360Z,80.30
2019-04-29T03:33:41.245Z,81.00
2019-04-29T03:36:11.368Z,80.20
2019-04-29T03:38:41.256Z,80.20
2019-04-29T03:41:11.573Z,80.40
2019-04-29T03:43:41.750Z,80.30
2019-04-29T03:46:12.102Z,79.70
2019-04-29T03:48:41.897Z,79.80
2019-04-29T03:51:12.091Z,80.00
2019-04-29T03:53:42.069Z,80.30
2019-04-29T03:56:11.902Z,80.60
2019-04-29T03:58:41.873Z,80.60
2019-04-29T04:01:24.535Z,80.90
2019-04-29T04:04:02.151Z,81.00
2019-04-29T04:06:49.571Z,81.00
2019-04-29T04:09:31.416Z,81.10
2019-04-29T04:12:01.228Z,81.10
2019-04-29T04:14:31.091Z,80.90
2019-04-29T04:17:11.405Z,80.70
2019-04-29T04:19:41.916Z,80.30
2019-04-29T04:22:11.785Z,80.00
2019-04-29T04:24:41.633Z,79.50
2019-04-29T04:27:11.501Z,79.00
2019-04-29T04:29:41.650Z,78.60
2019-04-29T04:32:12.069Z,77.60
2019-04-29T04:34:42.287Z,78.00
2019-04-29T04:37:12.527Z,76.90
2019-04-29T04:39:44.019Z,76.70
2019-04-29T04:42:14.286Z,76.00
2019-04-29T04:44:50.354Z,75.30
2019-04-29T04:47:21.119Z,74.90
2019-04-29T04:49:51.547Z,74.50
2019-04-29T04:52:21.507Z,73.90
2019-04-29T04:54:53.172Z,73.40
2019-04-29T04:57:23.017Z,73.30
2019-04-29T04:59:52.829Z,73.00
2019-04-29T05:02:24.995Z,72.90
2019-04-29T05:04:55.534Z,73.10
2019-04-29T05:07:25.400Z,72.20
2019-04-29T05:09:55.369Z,72.00
2019-04-29T05:12:25.366Z,71.50
2019-04-29T05:14:55.890Z,71.00
2019-04-29T05:17:28.160Z,69.80
2019-04-29T05:19:58.044Z,70.00
2019-04-29T05:22:28.433Z,70.30
2019-04-29T05:24:58.642Z,70.50
2019-04-29T05:27:29.005Z,70.00
2019-04-29T05:29:58.970Z,69.50
2019-04-29T05:32:29.219Z,69.80
2019-04-29T05:35:01.767Z,69.90
2019-04-29T05:37:41.377Z,69.80
2019-04-29T05:40:14.484Z,68.90
2019-04-29T05:42:48.289Z,68.60
2019-04-29T05:45:25.414Z,68.00
2019-04-29T05:48:06.172Z,68.10
2019-04-29T05:50:43.448Z,68.20
2019-04-29T05:53:24.655Z,68.20
2019-04-29T05:55:54.490Z,68.00
2019-04-29T05:58:24.502Z,69.60
2019-04-29T06:01:13.825Z,68.60
2019-04-29T06:03:45.746Z,68.30
2019-04-29T06:06:15.814Z,68.90
2019-04-29T06:08:46.040Z,69.10
2019-04-29T06:11:15.912Z,69.40
2019-04-29T06:13:46.162Z,69.10
2019-04-29T06:16:20.853Z,68.60
2019-04-29T06:18:47.630Z,68.70
2019-04-29T06:21:17.587Z,68.00
2019-04-29T06:23:47.756Z,67.50
2019-04-29T06:26:17.607Z,67.00
2019-04-29T06:28:48.015Z,67.10
2019-04-29T06:31:17.979Z,67.10
2019-04-29T06:33:48.185Z,67.00
2019-04-29T06:36:18.022Z,67.30
2019-04-29T06:38:49.572Z,67.10
2019-04-29T06:41:19.464Z,67.40
2019-04-29T06:43:52.401Z,67.40
2019-04-29T06:46:21.425Z,66.30
2019-04-29T06:48:52.737Z,66.70
2019-04-29T06:51:22.710Z,66.30
2019-04-29T06:53:53.326Z,66.20
2019-04-29T06:56:23.387Z,65.90
2019-04-29T06:58:53.429Z,65.70
2019-04-29T07:01:23.273Z,64.50
2019-04-29T07:03:55.829Z,64.40
2019-04-29T07:06:25.079Z,65.70
2019-04-29T07:08:54.835Z,66.50
2019-04-29T07:11:25.499Z,66.20
2019-04-29T07:13:57.563Z,65.50
2019-04-29T07:16:31.781Z,64.60
2019-04-29T07:18:59.108Z,64.40
2019-04-29T07:21:33.239Z,64.70
2019-04-29T07:24:03.595Z,65.30
2019-04-29T07:26:33.451Z,66.10
2019-04-29T07:29:03.807Z,65.40
2019-04-29T07:31:35.270Z,64.20
2019-04-29T07:34:08.314Z,63.30
2019-04-29T07:36:37.792Z,62.60
2019-04-29T07:39:08.661Z,63.60
2019-04-29T07:41:41.952Z,63.40
2019-04-29T07:44:13.837Z,62.80
2019-04-29T07:46:56.880Z,62.40
2019-04-29T07:49:23.847Z,63.00
2019-04-29T07:51:53.779Z,62.00
2019-04-29T07:54:23.931Z,62.40
2019-04-29T07:56:54.445Z,62.90
2019-04-29T07:59:24.669Z,61.70
2019-04-29T08:01:55.585Z,62.10
2019-04-29T08:04:27.064Z,62.50
2019-04-29T08:06:56.955Z,63.40
2019-04-29T08:09:26.752Z,61.30
2019-04-29T08:11:56.978Z,59.50
2019-04-29T08:14:27.377Z,59.60
2019-04-29T08:16:57.785Z,58.70
2019-04-29T08:19:29.592Z,59.10
2019-04-29T08:21:59.295Z,57.90
2019-04-29T08:24:29.150Z,57.40
2019-04-29T08:26:59.791Z,57.50
2019-04-29T08:29:30.790Z,57.80
2019-04-29T08:32:02.485Z,60.10
2019-04-29T08:34:32.872Z,59.50
2019-04-29T08:37:02.613Z,60.20
2019-04-29T08:39:32.404Z,60.10
2019-04-29T08:42:08.855Z,59.50
2019-04-29T08:44:54.649Z,59.90
2019-04-29T08:47:31.615Z,59.30
2019-04-29T08:50:00.469Z,58.80
2019-04-29T08:52:30.747Z,57.80
2019-04-29T08:55:00.692Z,58.00
2019-04-29T08:57:31.713Z,57.50
2019-04-29T09:00:02.987Z,57.70
2019-04-29T09:02:35.434Z,58.10
2019-04-29T09:05:06.859Z,57.70
2019-04-29T09:07:39.602Z,56.80
2019-04-29T09:10:09.429Z,56.50
2019-04-29T09:12:39.227Z,56.20
2019-04-29T09:15:12.145Z,56.40
2019-04-29T09:17:42.074Z,57.60
2019-04-29T09:20:12.867Z,56.90
2019-04-29T09:22:47.443Z,56.50
2019-04-29T09:25:28.510Z,55.80
2019-04-29T09:27:59.974Z,54.60
2019-04-29T09:30:30.342Z,54.60
2019-04-29T09:33:00.203Z,52.60
2019-04-29T09:35:33.793Z,52.30
2019-04-29T09:38:01.843Z,52.60
2019-04-29T09:40:34.222Z,53.50
2019-04-29T09:43:25.866Z,55.10
2019-04-29T09:46:18.650Z,56.30
2019-04-29T09:48:49.127Z,55.60
2019-04-29T09:51:22.881Z,54.10
2019-04-29T09:53:50.843Z,53.50
2019-04-29T09:56:21.014Z,53.00
2019-04-29T09:58:53.847Z,52.40
2019-04-29T10:01:41.650Z,52.00
2019-04-29T10:04:28.932Z,51.50
2019-04-29T10:06:59.256Z,51.70
2019-04-29T10:09:30.217Z,52.30
2019-04-29T10:12:00.328Z,52.20
2019-04-29T10:14:30.294Z,52.90
2019-04-29T10:17:16.705Z,53.20
2019-04-29T10:20:09.658Z,52.60
2019-04-29T10:22:39.719Z,49.30
2019-04-29T10:25:10.062Z,50.60
2019-04-29T10:27:40.975Z,51.70
2019-04-29T10:30:10.759Z,51.80
2019-04-29T10:32:42.387Z,50.70
2019-04-29T10:35:13.706Z,50.40
2019-04-29T10:37:43.723Z,51.10
2019-04-29T10:40:24.447Z,52.40
2019-04-29T10:43:17.218Z,50.60
2019-04-29T10:46:08.451Z,51.10
2019-04-29T10:48:44.522Z,49.40
2019-04-29T10:51:16.379Z,48.10
2019-04-29T10:53:46.593Z,49.00
2019-04-29T10:56:18.317Z,45.80
2019-04-29T10:58:48.465Z,47.60
2019-04-29T11:02:19.194Z,46.10
2019-04-29T11:04:52.228Z,49.60
2019-04-29T11:07:30.709Z,49.30
2019-04-29T11:10:09.051Z,50.30
2019-04-29T11:12:40.170Z,50.60
2019-04-29T11:15:14.058Z,51.20
2019-04-29T11:17:44.674Z,51.00
2019-04-29T11:20:15.799Z,52.30
2019-04-29T11:22:51.513Z,54.20
2019-04-29T11:25:51.159Z,56.10
2019-04-29T11:28:18.777Z,57.60
2019-04-29T11:30:49.847Z,55.70
2019-04-29T11:33:40.212Z,56.10
2019-04-29T11:36:13.397Z,55.70
2019-04-29T11:38:44.759Z,55.50
2019-04-29T11:41:19.879Z,56.10
2019-04-29T11:43:50.873Z,57.30
2019-04-29T11:46:21.065Z,57.70
2019-04-29T11:48:52.414Z,58.50
2019-04-29T11:51:41.360Z,59.30
2019-04-29T11:54:08.357Z,58.60
2019-04-29T11:56:39.727Z,58.60
2019-04-29T11:59:42.320Z,59.90
2019-04-29T12:02:44.576Z,58.00
2019-04-29T12:05:23.163Z,60.60
2019-04-29T12:07:53.459Z,59.00
2019-04-29T12:10:24.901Z,58.50
2019-04-29T12:12:54.999Z,59.90
2019-04-29T12:15:38.633Z,60.60
2019-04-29T12:18:27.487Z,61.30
2019-04-29T12:21:12.979Z,62.00
2019-04-29T12:23:47.657Z,65.10
2019-04-29T12:26:18.131Z,71.80
2019-04-29T12:28:48.112Z,77.40
2019-04-29T12:31:40.667Z,79.30
2019-04-29T12:34:35.403Z,78.20
2019-04-29T12:37:11.481Z,83.40
2019-04-29T12:40:16.036Z,90.80
2019-04-29T12:43:04.748Z,90.40
2019-04-29T12:45:45.225Z,85.20
2019-04-29T12:48:24.566Z,87.10
2019-04-29T12:50:47.606Z,84.80
2019-04-29T12:53:17.926Z,86.00
2019-04-29T12:55:53.390Z,85.10
2019-04-29T12:58:24.344Z,85.50
2019-04-29T13:00:59.917Z,85.20
2019-04-29T13:03:42.337Z,82.90
2019-04-29T13:06:23.966Z,78.90
2019-04-29T13:08:57.348Z,80.10
2019-04-29T13:11:37.418Z,82.40
2019-04-29T13:14:01.912Z,81.30
2019-04-29T13:16:59.175Z,81.80
2019-04-29T13:19:38.169Z,84.00
2019-04-29T13:22:10.594Z,80.70
2019-04-29T13:24:42.675Z,79.50
2019-04-29T13:27:16.388Z,78.90
2019-04-29T13:29:43.474Z,81.50
2019-04-29T13:32:13.616Z,84.90
2019-04-29T13:34:45.742Z,80.30
2019-04-29T13:37:19.050Z,80.30
2019-04-29T13:39:47.709Z,81.10
2019-04-29T13:42:17.659Z,85.00
2019-04-29T13:45:05.172Z,83.70
2019-04-29T13:47:50.226Z,87.30
2019-04-29T13:50:38.260Z,86.30
2019-04-29T13:52:54.614Z,87.70
2019-04-29T13:55:47.237Z,83.00
2019-04-29T13:57:59.626Z,85.00
2019-04-29T14:00:38.876Z,85.10
2019-04-29T14:03:14.572Z,85.50
2019-04-29T14:05:45.362Z,86.40
2019-04-29T14:08:15.283Z,86.30
2019-04-29T14:10:46.814Z,85.40
2019-04-29T14:13:20.828Z,84.00
2019-04-29T14:15:49.120Z,83.50
2019-04-29T14:18:19.256Z,85.10
2019-04-29T14:20:51.770Z,83.90
2019-04-29T14:23:20.690Z,82.80
2019-04-29T14:25:50.626Z,86.40
2019-04-29T14:28:36.374Z,84.90
2019-04-29T14:31:18.558Z,85.80
2019-04-29T14:34:05.004Z,85.30
2019-04-29T14:36:37.841Z,85.10
2019-04-29T14:39:18.943Z,85.90
2019-04-29T14:41:58.397Z,83.30
2019-04-29T14:44:52.666Z,85.80
2019-04-29T14:47:48.934Z,85.90
2019-04-29T14:50:38.172Z,83.80
2019-04-29T14:53:12.247Z,88.10
2019-04-29T14:55:45.916Z,89.40
2019-04-29T14:58:18.199Z,90.60
2019-04-29T15:01:16.501Z,90.10
2019-04-29T15:04:17.971Z,89.20
2019-04-29T15:06:52.932Z,90.50
2019-04-29T15:09:45.879Z,92.80
2019-04-29T15:12:24.176Z,92.30
2019-04-29T15:15:18.988Z,89.60
2019-04-29T15:18:00.982Z,89.20
2019-04-29T15:20:56.289Z,87.40
2019-04-29T15:23:28.794Z,89.30
2019-04-29T15:26:08.202Z,90.40
2019-04-29T15:28:54.597Z,88.70
2019-04-29T15:31:25.614Z,88.20
2019-04-29T15:33:57.588Z,88.60
2019-04-29T15:36:34.868Z,90.30
2019-04-29T15:39:13.039Z,91.50
2019-04-29T15:41:50.413Z,91.00
2019-04-29T15:44:23.003Z,91.00
2019-04-29T15:46:59.272Z,91.20
2019-04-29T15:49:38.260Z,93.00
2019-04-29T15:52:21.133Z,91.30
2019-04-29T15:54:58.755Z,93.50
2019-04-29T15:57:32.631Z,94.50
2019-04-29T16:00:21.200Z,92.80
2019-04-29T16:02:50.183Z,93.60
2019-04-29T16:05:54.045Z,92.50
2019-04-29T16:08:29.570Z,92.90
2019-04-29T16:11:20.129Z,93.10
2019-04-29T16:14:08.367Z,90.50
2019-04-29T16:16:23.552Z,92.20
2019-04-29T16:18:53.762Z,93.80
2019-04-29T16:21:23.756Z,92.20
2019-04-29T16:23:57.571Z,91.80
2019-04-29T16:26:30.142Z,93.00
2019-04-29T16:28:57.898Z,94.00
2019-04-29T16:31:27.755Z,94.70
2019-04-29T16:33:58.042Z,93.90
2019-04-29T16:36:28.215Z,95.10
2019-04-29T16:38:58.516Z,94.00
2019-04-29T16:42:02.838Z,94.60
2019-04-29T16:44:36.243Z,96.60
2019-04-29T16:47:07.371Z,96.00
2019-04-29T16:49:38.835Z,96.80
2019-04-29T16:52:08.850Z,95.30
2019-04-29T16:54:39.084Z,95.80
2019-04-29T16:57:09.395Z,93.50
2019-04-29T16:59:39.383Z,94.60
2019-04-29T17:02:09.721Z,92.50
2019-04-29T17:04:40.241Z,93.70
2019-04-29T17:07:29.381Z,94.80
2019-04-29T17:10:18.594Z,94.70
2019-04-29T17:12:52.347Z,96.00
2019-04-29T17:15:25.386Z,96.10
2019-04-29T17:17:55.601Z,96.40
2019-04-29T17:20:30.222Z,96.40
2019-04-29T17:23:00.452Z,97.00
2019-04-29T17:25:30.241Z,96.10
2019-04-29T17:28:24.259Z,94.60
2019-04-29T17:31:11.657Z,94.70
2019-04-29T17:33:49.864Z,95.50
2019-04-29T17:36:23.615Z,96.20
2019-04-29T17:38:50.755Z,96.70
2019-04-29T17:41:20.956Z,96.00
2019-04-29T17:44:09.121Z,96.40
2019-04-29T17:47:11.486Z,97.40
2019-04-29T17:49:48.221Z,96.70
2019-04-29T17:52:25.968Z,96.20
2019-04-29T17:55:00.104Z,96.70
2019-04-29T17:57:37.926Z,96.50
2019-04-29T18:00:19.449Z,96.40
2019-04-29T18:03:15.278Z,96.30
2019-04-29T18:05:55.293Z,96.80
2019-04-29T18:08:41.611Z,95.20
2019-04-29T18:11:11.668Z,95.70
2019-04-29T18:13:41.721Z,96.40
2019-04-29T18:16:19.131Z,95.80
2019-04-29T18:19:05.541Z,95.50
2019-04-29T18:21:54.065Z,96.40
2019-04-29T18:24:34.123Z,96.30
2019-04-29T18:27:07.839Z,94.90
2019-04-29T18:29:41.509Z,95.70
2019-04-29T18:32:09.436Z,96.10
2019-04-29T18:34:39.807Z,97.40
2019-04-29T18:37:09.816Z,98.40
2019-04-29T18:39:40.089Z,98.60
2019-04-29T18:42:12.229Z,98.40
2019-04-29T18:44:56.538Z,98.60
2019-04-29T18:47:22.603Z,99.00
2019-04-29T18:49:47.326Z,98.30
2019-04-29T18:52:25.338Z,97.50
2019-04-29T18:54:49.283Z,98.60
2019-04-29T18:57:27.666Z,98.40
2019-04-29T18:59:52.409Z,98.80
2019-04-29T19:02:22.319Z,99.90
2019-04-29T19:04:58.172Z,99.90
2019-04-29T19:07:31.833Z,99.90
2019-04-29T19:10:01.415Z,99.90
2019-04-29T19:12:32.717Z,99.90
2019-04-29T19:15:10.010Z,99.90
2019-04-29T19:17:39.701Z,99.90
2019-04-29T19:20:08.615Z,99.90
2019-04-29T19:22:39.941Z,99.90
2019-04-29T19:25:11.818Z,99.90
2019-04-29T19:27:42.010Z,99.90
2019-04-29T19:30:16.231Z,99.90
2019-04-29T19:32:46.638Z,99.90
2019-04-29T19:35:16.984Z,99.90
2019-04-29T19:37:47.172Z,99.90
2019-04-29T19:40:19.673Z,99.90
2019-04-29T19:42:49.606Z,99.90
2019-04-29T19:45:19.860Z,99.90
2019-04-29T19:47:53.151Z,99.90
2019-04-29T19:50:21.532Z,99.90
2019-04-29T19:52:55.431Z,99.90
2019-04-29T19:55:25.252Z,99.90
2019-04-29T19:57:56.371Z,99.90
2019-04-29T20:00:29.473Z,99.90
2019-04-29T20:02:59.172Z,99.90
2019-04-29T20:05:42.192Z,99.90
2019-04-29T20:08:21.596Z,99.90
2019-04-29T20:10:51.042Z,99.90
2019-04-29T20:13:18.257Z,99.90
2019-04-29T20:16:12.384Z,99.90
2019-04-29T20:19:02.500Z,99.90
2019-04-29T20:21:36.199Z,99.90
2019-04-29T20:24:09.630Z,99.90
2019-04-29T20:26:38.962Z,99.90
2019-04-29T20:29:09.846Z,99.90
2019-04-29T20:31:48.653Z,99.90
2019-04-29T20:34:12.701Z,99.90
2019-04-29T20:36:43.133Z,99.90
2019-04-29T20:39:16.956Z,99.90
2019-04-29T20:41:48.734Z,99.90
2019-04-29T20:44:17.908Z,99.90
2019-04-29T20:47:13.009Z,99.90
2019-04-29T20:49:19.471Z,99.90
2019-04-29T20:51:52.977Z,99.90
2019-04-29T20:54:26.152Z,99.90
2019-04-29T20:57:02.919Z,99.90
2019-04-29T20:59:28.469Z,99.90
2019-04-29T21:02:12.039Z,99.90
2019-04-29T21:04:39.251Z,99.90
2019-04-29T21:07:07.037Z,99.90
2019-04-29T21:09:37.358Z,99.90
2019-04-29T21:12:38.225Z,99.90
2019-04-29T21:15:14.957Z,99.90
2019-04-29T21:17:43.087Z,99.90
2019-04-29T21:20:13.368Z,99.90
2019-04-29T21:22:45.454Z,99.90
2019-04-29T21:25:16.605Z,99.90
2019-04-29T21:27:48.521Z,99.90
2019-04-29T21:30:18.542Z,99.90
2019-04-29T21:32:48.503Z,99.90
2019-04-29T21:35:27.013Z,99.90
2019-04-29T21:38:23.358Z,99.90
2019-04-29T21:41:02.463Z,99.90
2019-04-29T21:43:35.442Z,99.90
2019-04-29T21:46:05.973Z,99.90
2019-04-29T21:48:37.378Z,99.90
2019-04-29T21:51:11.197Z,99.90
2019-04-29T21:53:40.668Z,99.90
2019-04-29T21:56:10.578Z,99.90
2019-04-29T21:58:40.762Z,99.90
2019-04-29T22:01:11.224Z,99.90
2019-04-29T22:03:42.786Z,99.90
2019-04-29T22:06:12.643Z,99.90
2019-04-29T22:08:42.618Z,99.90
2019-04-29T22:11:13.514Z,99.90
2019-04-29T22:13:45.285Z,99.90
2019-04-29T22:16:17.190Z,99.90
2019-04-29T22:18:52.095Z,99.90
2019-04-29T22:21:21.941Z,99.90
2019-04-29T22:23:52.372Z,99.90
2019-04-29T22:26:23.350Z,99.90
2019-04-29T22:29:01.798Z,99.90
2019-04-29T22:31:33.519Z,99.90
2019-04-29T22:33:58.437Z,99.90
2019-04-29T22:36:28.200Z,99.90
2019-04-29T22:38:58.470Z,99.90
2019-04-29T22:41:48.726Z,99.90
2019-04-29T22:44:21.888Z,99.90
2019-04-29T22:46:53.257Z,99.90
2019-04-29T22:49:27.212Z,99.90
2019-04-29T22:51:57.139Z,99.90
2019-04-29T22:54:26.694Z,99.90
2019-04-29T22:56:56.839Z,99.90
2019-04-29T22:59:27.578Z,99.90
2019-04-29T23:01:57.582Z,99.90
2019-04-29T23:04:27.668Z,99.90
2019-04-29T23:06:57.942Z,99.90
2019-04-29T23:09:28.199Z,99.90
2019-04-29T23:11:58.091Z,99.90
2019-04-29T23:14:28.400Z,99.90
2019-04-29T23:16:59.039Z,99.90
2019-04-29T23:19:29.260Z,99.90
2019-04-29T23:22:22.612Z,99.90
2019-04-29T23:24:59.441Z,99.90
2019-04-29T23:27:29.461Z,99.90
2019-04-29T23:29:59.736Z,99.90
2019-04-29T23:32:30.442Z,99.90
2019-04-29T23:35:01.715Z,99.90
2019-04-29T23:37:36.532Z,99.90
2019-04-29T23:40:10.420Z,99.90
2019-04-29T23:42:43.670Z,99.90
2019-04-29T23:45:14.556Z,99.90
2019-04-29T23:47:46.840Z,99.90
2019-04-29T23:50:18.602Z,99.90
2019-04-29T23:52:51.895Z,99.90
2019-04-29T23:55:24.973Z,99.90
2019-04-29T23:58:03.756Z,99.90
